sensor_id;sensor_type;location;lat;lon;timestamp;pressure;altitude;pressure_sealevel;temperature;humidity
58843;BME280;44614;54.356;10.100;2023-05-01T00:00:08;101852.66;;;5.89;68.33
58843;BME280;44614;54.356;10.100;2023-05-01T00:02:34;101849.06;;;5.88;68.47
58843;BME280;44614;54.356;10.100;2023-05-01T00:05:01;101820.41;;;5.76;68.26
58843;BME280;44614;54.356;10.100;2023-05-01T00:07:26;101830.66;;;5.82;69.27
58843;BME280;44614;54.356;10.100;2023-05-01T00:09:55;101837.13;;;5.89;68.61
58843;BME280;44614;54.356;10.100;2023-05-01T00:12:21;101812.94;;;5.78;67.68
58843;BME280;44614;54.356;10.100;2023-05-01T00:14:46;101826.25;;;5.89;67.86
58843;BME280;44614;54.356;10.100;2023-05-01T00:17:11;101817.88;;;5.82;67.85
58843;BME280;44614;54.356;10.100;2023-05-01T00:19:36;101819.41;;;5.85;69.02
58843;BME280;44614;54.356;10.100;2023-05-01T00:22:02;101804.94;;;5.76;68.16
58843;BME280;44614;54.356;10.100;2023-05-01T00:24:27;101820.28;;;5.85;68.08
58843;BME280;44614;54.356;10.100;2023-05-01T00:26:53;101802.53;;;5.73;69.45
58843;BME280;44614;54.356;10.100;2023-05-01T00:29:18;101816.69;;;5.85;68.54
58843;BME280;44614;54.356;10.100;2023-05-01T00:31:43;101811.38;;;5.83;68.42
58843;BME280;44614;54.356;10.100;2023-05-01T00:34:09;101796.75;;;5.76;69.22
58843;BME280;44614;54.356;10.100;2023-05-01T00:36:35;101782.25;;;5.68;69.07
58843;BME280;44614;54.356;10.100;2023-05-01T00:39:01;101795.53;;;5.79;69.57
58843;BME280;44614;54.356;10.100;2023-05-01T00:41:26;101801.38;;;5.84;69.89
58843;BME280;44614;54.356;10.100;2023-05-01T00:43:51;101784.97;;;5.76;69.25
58843;BME280;44614;54.356;10.100;2023-05-01T00:46:17;101790.09;;;5.79;69.33
58843;BME280;44614;54.356;10.100;2023-05-01T00:48:43;101782.25;;;5.76;70.10
58843;BME280;44614;54.356;10.100;2023-05-01T00:51:09;101793.53;;;5.81;69.64
58843;BME280;44614;54.356;10.100;2023-05-01T00:53:35;101798.28;;;5.79;71.03
58843;BME280;44614;54.356;10.100;2023-05-01T00:56:00;101768.94;;;5.65;69.95
58843;BME280;44614;54.356;10.100;2023-05-01T00:58:26;101779.88;;;5.73;69.99
58843;BME280;44614;54.356;10.100;2023-05-01T01:00:51;101781.72;;;5.72;71.12
58843;BME280;44614;54.356;10.100;2023-05-01T01:03:19;101769.97;;;5.63;70.13
58843;BME280;44614;54.356;10.100;2023-05-01T01:06:12;101775.94;;;5.67;69.86
58843;BME280;44614;54.356;10.100;2023-05-01T01:08:44;101746.09;;;5.49;70.04
58843;BME280;44614;54.356;10.100;2023-05-01T01:14:19;101764.84;;;5.52;71.56
58843;BME280;44614;54.356;10.100;2023-05-01T01:16:56;101771.34;;;5.68;71.44
58843;BME280;44614;54.356;10.100;2023-05-01T01:19:43;101687.69;;;5.19;71.64
58843;BME280;44614;54.356;10.100;2023-05-01T01:22:19;101751.59;;;5.57;70.93
58843;BME280;44614;54.356;10.100;2023-05-01T01:35:28;101737.78;;;5.43;70.73
58843;BME280;44614;54.356;10.100;2023-05-01T01:38:16;101756.34;;;5.55;72.71
58843;BME280;44614;54.356;10.100;2023-05-01T01:40:54;101759.06;;;5.55;71.95
58843;BME280;44614;54.356;10.100;2023-05-01T01:43:21;101752.44;;;5.50;71.78
58843;BME280;44614;54.356;10.100;2023-05-01T01:45:52;101759.41;;;5.52;71.95
58843;BME280;44614;54.356;10.100;2023-05-01T01:48:25;101757.53;;;5.53;71.26
58843;BME280;44614;54.356;10.100;2023-05-01T01:50:57;101734.88;;;5.44;70.79
58843;BME280;44614;54.356;10.100;2023-05-01T01:53:24;101711.69;;;5.32;70.65
58843;BME280;44614;54.356;10.100;2023-05-01T01:55:53;101748.50;;;5.52;70.90
58843;BME280;44614;54.356;10.100;2023-05-01T01:58:20;101743.38;;;5.49;71.88
58843;BME280;44614;54.356;10.100;2023-05-01T02:00:50;101721.56;;;5.33;71.32
58843;BME280;44614;54.356;10.100;2023-05-01T02:03:16;101726.50;;;5.37;72.41
58843;BME280;44614;54.356;10.100;2023-05-01T02:05:42;101743.88;;;5.45;71.99
58843;BME280;44614;54.356;10.100;2023-05-01T02:08:10;101727.38;;;5.38;72.07
58843;BME280;44614;54.356;10.100;2023-05-01T02:10:37;101737.91;;;5.41;75.59
58843;BME280;44614;54.356;10.100;2023-05-01T02:13:03;101715.44;;;5.31;73.36
58843;BME280;44614;54.356;10.100;2023-05-01T02:15:30;101721.41;;;5.34;72.06
58843;BME280;44614;54.356;10.100;2023-05-01T02:17:57;101704.88;;;5.20;71.93
58843;BME280;44614;54.356;10.100;2023-05-01T02:20:23;101732.13;;;5.36;72.91
58843;BME280;44614;54.356;10.100;2023-05-01T02:22:49;101729.75;;;5.33;72.45
58843;BME280;44614;54.356;10.100;2023-05-01T02:25:17;101721.88;;;5.30;72.35
58843;BME280;44614;54.356;10.100;2023-05-01T02:27:46;101711.00;;;5.30;71.85
58843;BME280;44614;54.356;10.100;2023-05-01T02:30:13;101699.75;;;5.17;72.58
58843;BME280;44614;54.356;10.100;2023-05-01T02:32:38;101690.22;;;5.12;72.43
58843;BME280;44614;54.356;10.100;2023-05-01T02:35:04;101714.59;;;5.30;72.25
58843;BME280;44614;54.356;10.100;2023-05-01T02:37:30;101711.88;;;5.30;72.35
58843;BME280;44614;54.356;10.100;2023-05-01T02:39:56;101703.00;;;5.28;72.03
58843;BME280;44614;54.356;10.100;2023-05-01T02:42:23;101710.47;;;5.26;72.06
58843;BME280;44614;54.356;10.100;2023-05-01T02:44:54;101702.50;;;5.25;72.42
58843;BME280;44614;54.356;10.100;2023-05-01T02:47:22;101694.50;;;5.23;72.48
58843;BME280;44614;54.356;10.100;2023-05-01T02:49:48;101701.81;;;5.23;73.29
58843;BME280;44614;54.356;10.100;2023-05-01T02:52:16;101695.69;;;5.21;73.42
58843;BME280;44614;54.356;10.100;2023-05-01T02:54:43;101692.25;;;5.19;77.74
58843;BME280;44614;54.356;10.100;2023-05-01T02:57:10;101690.88;;;5.14;74.78
58843;BME280;44614;54.356;10.100;2023-05-01T02:59:35;101672.66;;;5.07;74.11
58843;BME280;44614;54.356;10.100;2023-05-01T03:02:01;101662.78;;;5.06;73.35
58843;BME280;44614;54.356;10.100;2023-05-01T03:04:26;101661.25;;;5.03;73.05
58843;BME280;44614;54.356;10.100;2023-05-01T03:06:52;101671.31;;;5.11;72.96
58843;BME280;44614;54.356;10.100;2023-05-01T03:09:18;101660.38;;;4.95;72.70
58843;BME280;44614;54.356;10.100;2023-05-01T03:11:44;101668.94;;;5.08;72.96
58843;BME280;44614;54.356;10.100;2023-05-01T03:14:09;101654.44;;;4.99;73.73
58843;BME280;44614;54.356;10.100;2023-05-01T03:16:35;101654.44;;;4.99;73.44
58843;BME280;44614;54.356;10.100;2023-05-01T03:19:00;101643.53;;;4.91;73.17
58843;BME280;44614;54.356;10.100;2023-05-01T03:21:26;101665.84;;;5.03;73.09
58843;BME280;44614;54.356;10.100;2023-05-01T03:23:51;101641.13;;;4.88;72.89
58843;BME280;44614;54.356;10.100;2023-05-01T03:26:17;101658.88;;;5.00;73.08
58843;BME280;44614;54.356;10.100;2023-05-01T03:28:42;101644.38;;;4.92;73.85
58843;BME280;44614;54.356;10.100;2023-05-01T03:31:07;101658.50;;;4.95;73.56
58843;BME280;44614;54.356;10.100;2023-05-01T03:33:33;101639.78;;;4.84;73.44
58843;BME280;44614;54.356;10.100;2023-05-01T03:35:59;101637.91;;;4.84;73.27
58843;BME280;44614;54.356;10.100;2023-05-01T03:38:26;101643.19;;;4.86;73.58
58843;BME280;44614;54.356;10.100;2023-05-01T03:40:52;101648.97;;;4.91;73.83
58843;BME280;44614;54.356;10.100;2023-05-01T03:43:17;101648.13;;;4.91;74.32
58843;BME280;44614;54.356;10.100;2023-05-01T03:45:42;101630.94;;;4.82;74.05
58843;BME280;44614;54.356;10.100;2023-05-01T03:48:08;101639.13;;;4.90;74.00
58843;BME280;44614;54.356;10.100;2023-05-01T03:50:33;101623.63;;;4.82;73.98
58843;BME280;44614;54.356;10.100;2023-05-01T03:52:58;101623.44;;;4.84;74.24
58843;BME280;44614;54.356;10.100;2023-05-01T03:55:24;101630.75;;;4.83;73.65
58843;BME280;44614;54.356;10.100;2023-05-01T03:57:49;101619.03;;;4.83;73.59
58843;BME280;44614;54.356;10.100;2023-05-01T04:00:14;101638.28;;;4.89;74.53
58843;BME280;44614;54.356;10.100;2023-05-01T04:02:40;101632.31;;;4.86;73.64
58843;BME280;44614;54.356;10.100;2023-05-01T04:05:06;101642.50;;;4.92;73.62
58843;BME280;44614;54.356;10.100;2023-05-01T04:07:32;101625.84;;;4.87;74.26
58843;BME280;44614;54.356;10.100;2023-05-01T04:09:57;101630.44;;;4.95;74.35
58843;BME280;44614;54.356;10.100;2023-05-01T04:12:23;101622.97;;;4.88;74.33
58843;BME280;44614;54.356;10.100;2023-05-01T04:14:48;101621.94;;;4.89;74.55
58843;BME280;44614;54.356;10.100;2023-05-01T04:17:13;101620.19;;;4.80;74.38
58843;BME280;44614;54.356;10.100;2023-05-01T04:19:39;101606.13;;;4.93;74.89
58843;BME280;44614;54.356;10.100;2023-05-01T04:22:05;101608.53;;;4.96;74.58
58843;BME280;44614;54.356;10.100;2023-05-01T04:24:31;101594.53;;;4.91;74.58
58843;BME280;44614;54.356;10.100;2023-05-01T04:26:56;101608.84;;;5.01;74.67
58843;BME280;44614;54.356;10.100;2023-05-01T04:29:22;101595.06;;;4.95;74.80
58843;BME280;44614;54.356;10.100;2023-05-01T04:31:48;101616.69;;;5.12;73.84
58843;BME280;44614;54.356;10.100;2023-05-01T04:34:13;101610.03;;;5.15;73.76
58843;BME280;44614;54.356;10.100;2023-05-01T04:36:39;101602.25;;;5.20;73.48
58843;BME280;44614;54.356;10.100;2023-05-01T04:39:04;101612.09;;;5.21;73.96
58843;BME280;44614;54.356;10.100;2023-05-01T04:41:29;101606.84;;;5.28;73.39
58843;BME280;44614;54.356;10.100;2023-05-01T04:43:55;101605.47;;;5.32;73.59
58843;BME280;44614;54.356;10.100;2023-05-01T04:46:20;101608.53;;;5.37;73.52
58843;BME280;44614;54.356;10.100;2023-05-01T04:48:46;101606.16;;;5.42;73.38
58843;BME280;44614;54.356;10.100;2023-05-01T04:51:11;101599.16;;;5.48;72.98
58843;BME280;44614;54.356;10.100;2023-05-01T04:53:36;101590.47;;;5.52;73.12
58843;BME280;44614;54.356;10.100;2023-05-01T04:56:02;101570.75;;;5.50;73.00
58843;BME280;44614;54.356;10.100;2023-05-01T04:58:27;101590.97;;;5.64;72.59
58843;BME280;44614;54.356;10.100;2023-05-01T05:00:52;101591.31;;;5.69;72.92
58843;BME280;44614;54.356;10.100;2023-05-01T05:03:18;101587.03;;;5.75;72.82
58843;BME280;44614;54.356;10.100;2023-05-01T05:05:43;101584.63;;;5.80;72.46
58843;BME280;44614;54.356;10.100;2023-05-01T05:08:10;101585.84;;;5.85;72.36
58843;BME280;44614;54.356;10.100;2023-05-01T05:10:36;101589.59;;;5.93;72.29
58843;BME280;44614;54.356;10.100;2023-05-01T05:13:01;101599.78;;;5.99;72.17
58843;BME280;44614;54.356;10.100;2023-05-01T05:15:26;101591.09;;;6.03;71.87
58843;BME280;44614;54.356;10.100;2023-05-01T05:17:51;101599.94;;;6.05;73.09
58843;BME280;44614;54.356;10.100;2023-05-01T05:20:17;101587.34;;;6.04;72.33
58843;BME280;44614;54.356;10.100;2023-05-01T05:22:42;101603.50;;;6.14;72.50
58843;BME280;44614;54.356;10.100;2023-05-01T05:25:07;101602.63;;;6.22;71.99
58843;BME280;44614;54.356;10.100;2023-05-01T05:27:33;101596.13;;;6.31;72.05
58843;BME280;44614;54.356;10.100;2023-05-01T05:30:06;101590.28;;;6.42;71.23
58843;BME280;44614;54.356;10.100;2023-05-01T05:32:31;101594.31;;;6.54;71.32
58843;BME280;44614;54.356;10.100;2023-05-01T05:34:57;101560.88;;;6.52;71.29
58843;BME280;44614;54.356;10.100;2023-05-01T05:37:23;101578.81;;;6.78;70.54
58843;BME280;44614;54.356;10.100;2023-05-01T05:39:50;101575.44;;;6.99;70.41
58843;BME280;44614;54.356;10.100;2023-05-01T05:42:15;101581.97;;;7.13;70.35
58843;BME280;44614;54.356;10.100;2023-05-01T05:44:41;101582.22;;;7.26;69.62
58843;BME280;44614;54.356;10.100;2023-05-01T05:47:06;101568.00;;;7.30;69.62
58843;BME280;44614;54.356;10.100;2023-05-01T05:49:31;101576.53;;;7.50;68.91
58843;BME280;44614;54.356;10.100;2023-05-01T05:51:57;101580.50;;;7.63;68.94
58843;BME280;44614;54.356;10.100;2023-05-01T05:54:22;101583.66;;;7.74;68.68
58843;BME280;44614;54.356;10.100;2023-05-01T05:56:48;101577.91;;;7.84;68.16
58843;BME280;44614;54.356;10.100;2023-05-01T05:59:13;101552.63;;;7.82;67.75
58843;BME280;44614;54.356;10.100;2023-05-01T06:01:39;101570.69;;;8.06;67.68
58843;BME280;44614;54.356;10.100;2023-05-01T06:04:05;101571.69;;;8.20;67.50
58843;BME280;44614;54.356;10.100;2023-05-01T06:06:31;101564.72;;;8.32;67.14
58843;BME280;44614;54.356;10.100;2023-05-01T06:08:56;101566.53;;;8.40;66.78
58843;BME280;44614;54.356;10.100;2023-05-01T06:11:22;101543.97;;;8.38;66.56
58843;BME280;44614;54.356;10.100;2023-05-01T06:13:48;101560.16;;;8.54;66.40
58843;BME280;44614;54.356;10.100;2023-05-01T06:16:13;101565.50;;;8.62;66.52
58843;BME280;44614;54.356;10.100;2023-05-01T06:18:40;101557.22;;;8.70;66.42
58843;BME280;44614;54.356;10.100;2023-05-01T06:21:05;101537.91;;;8.78;65.96
58843;BME280;44614;54.356;10.100;2023-05-01T06:23:30;101559.56;;;8.95;65.52
58843;BME280;44614;54.356;10.100;2023-05-01T06:25:58;101542.81;;;9.05;65.48
58843;BME280;44614;54.356;10.100;2023-05-01T06:28:23;101548.03;;;9.21;64.99
58843;BME280;44614;54.356;10.100;2023-05-01T06:30:49;101526.16;;;9.27;64.98
58843;BME280;44614;54.356;10.100;2023-05-01T06:33:14;101544.97;;;9.59;64.12
58843;BME280;44614;54.356;10.100;2023-05-01T06:35:39;101550.53;;;9.72;63.60
58843;BME280;44614;54.356;10.100;2023-05-01T06:38:05;101544.88;;;9.80;62.50
58843;BME280;44614;54.356;10.100;2023-05-01T06:40:30;101541.34;;;9.86;63.07
58843;BME280;44614;54.356;10.100;2023-05-01T06:42:56;101528.97;;;9.97;63.25
58843;BME280;44614;54.356;10.100;2023-05-01T06:45:22;101519.34;;;10.14;62.87
58843;BME280;44614;54.356;10.100;2023-05-01T06:47:47;101536.75;;;10.28;62.06
58843;BME280;44614;54.356;10.100;2023-05-01T06:50:12;101532.16;;;10.35;61.64
58843;BME280;44614;54.356;10.100;2023-05-01T06:52:39;101528.16;;;10.44;61.30
58843;BME280;44614;54.356;10.100;2023-05-01T06:55:04;101511.06;;;10.49;61.93
58843;BME280;44614;54.356;10.100;2023-05-01T06:57:30;101528.03;;;10.79;61.32
58843;BME280;44614;54.356;10.100;2023-05-01T06:59:55;101517.31;;;10.97;60.65
58843;BME280;44614;54.356;10.100;2023-05-01T07:02:21;101527.03;;;11.13;59.75
58843;BME280;44614;54.356;10.100;2023-05-01T07:04:46;101515.00;;;11.34;60.22
58843;BME280;44614;54.356;10.100;2023-05-01T07:07:11;101510.97;;;11.50;59.50
58843;BME280;44614;54.356;10.100;2023-05-01T07:09:37;101497.00;;;11.58;59.56
58843;BME280;44614;54.356;10.100;2023-05-01T07:12:03;101506.47;;;11.82;59.22
58843;BME280;44614;54.356;10.100;2023-05-01T07:14:29;101501.41;;;11.92;58.47
58843;BME280;44614;54.356;10.100;2023-05-01T07:16:55;101495.00;;;12.05;58.23
58843;BME280;44614;54.356;10.100;2023-05-01T07:19:20;101498.56;;;12.19;57.43
58843;BME280;44614;54.356;10.100;2023-05-01T07:21:45;101494.31;;;12.23;57.42
58843;BME280;44614;54.356;10.100;2023-05-01T07:24:11;101488.75;;;12.36;57.59
58843;BME280;44614;54.356;10.100;2023-05-01T07:26:36;101470.97;;;12.32;56.41
58843;BME280;44614;54.356;10.100;2023-05-01T07:29:03;101485.34;;;12.41;56.97
58843;BME280;44614;54.356;10.100;2023-05-01T07:31:28;101458.41;;;12.43;57.02
58843;BME280;44614;54.356;10.100;2023-05-01T07:33:53;101480.72;;;12.66;56.60
58843;BME280;44614;54.356;10.100;2023-05-01T07:36:19;101478.97;;;12.79;56.54
58843;BME280;44614;54.356;10.100;2023-05-01T07:38:49;101466.84;;;12.86;56.60
58843;BME280;44614;54.356;10.100;2023-05-01T07:41:14;101469.84;;;13.10;56.21
58843;BME280;44614;54.356;10.100;2023-05-01T07:43:40;101466.78;;;13.25;55.47
58843;BME280;44614;54.356;10.100;2023-05-01T07:46:05;101465.13;;;13.42;55.28
58843;BME280;44614;54.356;10.100;2023-05-01T07:48:31;101459.25;;;13.57;55.28
58843;BME280;44614;54.356;10.100;2023-05-01T07:51:00;101443.47;;;13.64;54.72
58843;BME280;44614;54.356;10.100;2023-05-01T07:53:25;101456.41;;;14.00;55.47
58843;BME280;44614;54.356;10.100;2023-05-01T07:55:51;101448.75;;;14.21;54.82
58843;BME280;44614;54.356;10.100;2023-05-01T07:58:16;101450.91;;;14.49;54.53
58843;BME280;44614;54.356;10.100;2023-05-01T08:00:41;101442.19;;;14.52;53.70
58843;BME280;44614;54.356;10.100;2023-05-01T08:03:09;101445.19;;;14.50;54.17
58843;BME280;44614;54.356;10.100;2023-05-01T08:05:34;101438.63;;;14.75;54.45
58843;BME280;44614;54.356;10.100;2023-05-01T08:08:00;101440.59;;;14.86;52.94
58843;BME280;44614;54.356;10.100;2023-05-01T08:10:25;101439.25;;;14.77;52.85
58843;BME280;44614;54.356;10.100;2023-05-01T08:12:54;101442.25;;;14.75;53.49
58843;BME280;44614;54.356;10.100;2023-05-01T08:15:19;101435.66;;;14.88;53.12
58843;BME280;44614;54.356;10.100;2023-05-01T08:17:45;101430.19;;;15.11;53.00
58843;BME280;44614;54.356;10.100;2023-05-01T08:20:11;101426.81;;;15.21;52.39
58843;BME280;44614;54.356;10.100;2023-05-01T08:22:37;101428.72;;;15.44;52.64
58843;BME280;44614;54.356;10.100;2023-05-01T08:25:03;101427.53;;;15.75;52.58
58843;BME280;44614;54.356;10.100;2023-05-01T08:27:28;101427.31;;;15.77;51.52
58843;BME280;44614;54.356;10.100;2023-05-01T08:29:54;101414.97;;;15.96;51.13
58843;BME280;44614;54.356;10.100;2023-05-01T08:32:19;101420.00;;;16.11;50.04
58843;BME280;44614;54.356;10.100;2023-05-01T08:34:45;101424.22;;;16.02;50.21
58843;BME280;44614;54.356;10.100;2023-05-01T08:37:10;101422.88;;;16.04;50.78
58843;BME280;44614;54.356;10.100;2023-05-01T08:39:36;101418.69;;;16.02;46.78
58843;BME280;44614;54.356;10.100;2023-05-01T08:42:01;101416.88;;;16.07;46.90
58843;BME280;44614;54.356;10.100;2023-05-01T08:44:29;101415.78;;;16.08;50.98
58843;BME280;44614;54.356;10.100;2023-05-01T08:47:09;101401.00;;;16.03;50.30
58843;BME280;44614;54.356;10.100;2023-05-01T08:49:36;101393.88;;;16.07;50.42
58843;BME280;44614;54.356;10.100;2023-05-01T08:52:04;101391.56;;;16.32;48.32
58843;BME280;44614;54.356;10.100;2023-05-01T08:54:30;101412.22;;;16.53;49.61
58843;BME280;44614;54.356;10.100;2023-05-01T08:57:00;101407.28;;;16.72;49.00
58843;BME280;44614;54.356;10.100;2023-05-01T08:59:33;101410.38;;;16.88;45.72
58843;BME280;44614;54.356;10.100;2023-05-01T09:02:01;101405.38;;;16.90;47.40
58843;BME280;44614;54.356;10.100;2023-05-01T09:04:32;101403.06;;;16.98;48.04
58843;BME280;44614;54.356;10.100;2023-05-01T09:06:58;101387.38;;;17.09;48.47
58843;BME280;44614;54.356;10.100;2023-05-01T09:09:25;101392.88;;;17.04;48.42
58843;BME280;44614;54.356;10.100;2023-05-01T09:11:52;101387.81;;;17.01;39.98
58843;BME280;44614;54.356;10.100;2023-05-01T09:14:18;101394.47;;;17.00;47.68
58843;BME280;44614;54.356;10.100;2023-05-01T09:16:43;101372.88;;;17.02;47.78
58843;BME280;44614;54.356;10.100;2023-05-01T09:19:09;101377.75;;;16.95;46.71
58843;BME280;44614;54.356;10.100;2023-05-01T09:21:34;101379.56;;;16.72;45.26
58843;BME280;44614;54.356;10.100;2023-05-01T09:24:00;101374.84;;;16.73;47.17
58843;BME280;44614;54.356;10.100;2023-05-01T09:26:26;101380.97;;;16.58;39.02
58843;BME280;44614;54.356;10.100;2023-05-01T09:28:52;101378.69;;;16.84;46.50
58843;BME280;44614;54.356;10.100;2023-05-01T09:31:24;101381.19;;;17.02;46.94
58843;BME280;44614;54.356;10.100;2023-05-01T09:33:56;101366.47;;;16.85;46.30
58843;BME280;44614;54.356;10.100;2023-05-01T09:36:23;101367.66;;;16.89;45.98
58843;BME280;44614;54.356;10.100;2023-05-01T09:38:49;101363.63;;;16.96;45.81
58843;BME280;44614;54.356;10.100;2023-05-01T09:41:14;101371.78;;;17.03;44.90
58843;BME280;44614;54.356;10.100;2023-05-01T09:43:40;101364.25;;;17.20;45.22
58843;BME280;44614;54.356;10.100;2023-05-01T09:46:09;101360.53;;;17.32;43.59
58843;BME280;44614;54.356;10.100;2023-05-01T09:48:36;101361.19;;;17.39;44.55
58843;BME280;44614;54.356;10.100;2023-05-01T09:53:50;101352.59;;;17.18;43.96
58843;BME280;44614;54.356;10.100;2023-05-01T09:56:17;101349.72;;;17.13;44.62
58843;BME280;44614;54.356;10.100;2023-05-01T09:58:42;101341.53;;;17.23;44.73
58843;BME280;44614;54.356;10.100;2023-05-01T10:01:08;101341.13;;;17.53;44.43
58843;BME280;44614;54.356;10.100;2023-05-01T10:03:34;101328.16;;;17.81;43.76
58843;BME280;44614;54.356;10.100;2023-05-01T10:06:00;101327.19;;;17.92;43.59
58843;BME280;44614;54.356;10.100;2023-05-01T10:11:09;101326.56;;;18.12;43.15
58843;BME280;44614;54.356;10.100;2023-05-01T10:13:34;101329.09;;;18.41;43.22
58843;BME280;44614;54.356;10.100;2023-05-01T10:15:59;101328.13;;;18.57;43.15
58843;BME280;44614;54.356;10.100;2023-05-01T10:18:28;101321.09;;;18.49;41.05
58843;BME280;44614;54.356;10.100;2023-05-01T10:20:55;101320.91;;;18.56;42.60
58843;BME280;44614;54.356;10.100;2023-05-01T10:23:20;101299.69;;;18.50;42.54
58843;BME280;44614;54.356;10.100;2023-05-01T10:25:47;101305.31;;;18.87;43.05
58843;BME280;44614;54.356;10.100;2023-05-01T10:28:14;101307.66;;;19.06;42.37
58843;BME280;44614;54.356;10.100;2023-05-01T10:30:40;101300.81;;;19.23;42.00
58843;BME280;44614;54.356;10.100;2023-05-01T10:33:05;101290.44;;;19.09;41.68
58843;BME280;44614;54.356;10.100;2023-05-01T10:35:34;101293.03;;;19.31;41.30
58843;BME280;44614;54.356;10.100;2023-05-01T10:38:10;101290.56;;;19.34;41.68
58843;BME280;44614;54.356;10.100;2023-05-01T10:43:33;101281.78;;;19.58;37.16
58843;BME280;44614;54.356;10.100;2023-05-01T10:53:39;101270.28;;;19.49;40.50
58843;BME280;44614;54.356;10.100;2023-05-01T10:56:05;101260.66;;;19.67;41.23
58843;BME280;44614;54.356;10.100;2023-05-01T10:58:59;101250.63;;;19.71;40.27
58843;BME280;44614;54.356;10.100;2023-05-01T11:04:06;101250.97;;;20.00;39.21
58843;BME280;44614;54.356;10.100;2023-05-01T11:06:33;101240.66;;;20.06;37.68
58843;BME280;44614;54.356;10.100;2023-05-01T11:08:59;101246.50;;;19.99;37.56
58843;BME280;44614;54.356;10.100;2023-05-01T11:21:44;101226.69;;;19.75;33.00
58843;BME280;44614;54.356;10.100;2023-05-01T11:24:10;101225.81;;;19.64;28.77
58843;BME280;44614;54.356;10.100;2023-05-01T11:26:37;101229.94;;;19.57;33.24
58843;BME280;44614;54.356;10.100;2023-05-01T11:29:04;101229.63;;;19.53;35.93
58843;BME280;44614;54.356;10.100;2023-05-01T11:31:30;101221.66;;;19.67;36.35
58843;BME280;44614;54.356;10.100;2023-05-01T11:33:57;101221.41;;;19.89;35.78
58843;BME280;44614;54.356;10.100;2023-05-01T11:36:22;101223.09;;;19.90;29.36
58843;BME280;44614;54.356;10.100;2023-05-01T11:38:52;101198.31;;;20.19;36.47
58843;BME280;44614;54.356;10.100;2023-05-01T11:41:21;101210.84;;;20.37;36.15
58843;BME280;44614;54.356;10.100;2023-05-01T11:43:52;101201.09;;;20.65;36.40
58843;BME280;44614;54.356;10.100;2023-05-01T11:46:31;101189.59;;;20.82;34.99
58843;BME280;44614;54.356;10.100;2023-05-01T11:49:00;101150.56;;;20.41;34.95
58843;BME280;44614;54.356;10.100;2023-05-01T11:51:26;101192.66;;;20.75;35.95
58843;BME280;44614;54.356;10.100;2023-05-01T11:56:24;101168.66;;;20.79;34.85
58843;BME280;44614;54.356;10.100;2023-05-01T11:58:50;101177.91;;;20.80;35.26
58843;BME280;44614;54.356;10.100;2023-05-01T12:01:15;101176.66;;;21.11;34.44
58843;BME280;44614;54.356;10.100;2023-05-01T12:03:42;101175.81;;;21.06;28.03
58843;BME280;44614;54.356;10.100;2023-05-01T12:06:11;101177.25;;;21.03;34.59
58843;BME280;44614;54.356;10.100;2023-05-01T12:08:42;101171.25;;;21.30;33.61
58843;BME280;44614;54.356;10.100;2023-05-01T12:11:07;101166.22;;;21.32;33.95
58843;BME280;44614;54.356;10.100;2023-05-01T12:13:33;101151.75;;;21.20;33.40
58843;BME280;44614;54.356;10.100;2023-05-01T12:15:59;101168.22;;;21.27;34.58
58843;BME280;44614;54.356;10.100;2023-05-01T12:18:25;101142.88;;;21.62;34.25
58843;BME280;44614;54.356;10.100;2023-05-01T12:20:52;101164.38;;;22.01;33.37
58843;BME280;44614;54.356;10.100;2023-05-01T12:23:29;101142.75;;;21.83;33.72
58843;BME280;44614;54.356;10.100;2023-05-01T12:25:54;101145.66;;;22.02;33.59
58843;BME280;44614;54.356;10.100;2023-05-01T12:28:22;101122.41;;;22.06;33.40
58843;BME280;44614;54.356;10.100;2023-05-01T12:30:48;101139.47;;;22.39;32.88
58843;BME280;44614;54.356;10.100;2023-05-01T12:35:39;101152.97;;;22.32;32.89
58843;BME280;44614;54.356;10.100;2023-05-01T12:38:13;101137.47;;;22.10;30.46
58843;BME280;44614;54.356;10.100;2023-05-01T12:40:40;101131.97;;;22.00;32.79
58843;BME280;44614;54.356;10.100;2023-05-01T12:43:13;101136.28;;;21.82;32.26
58843;BME280;44614;54.356;10.100;2023-05-01T12:45:39;101139.22;;;22.01;32.83
58843;BME280;44614;54.356;10.100;2023-05-01T12:48:11;101139.72;;;22.43;31.16
58843;BME280;44614;54.356;10.100;2023-05-01T12:50:39;101110.13;;;22.60;31.78
58843;BME280;44614;54.356;10.100;2023-05-01T12:53:05;101131.66;;;23.13;29.40
58843;BME280;44614;54.356;10.100;2023-05-01T12:55:41;101095.06;;;22.80;30.89
58843;BME280;44614;54.356;10.100;2023-05-01T12:58:07;101116.69;;;22.75;30.79
58843;BME280;44614;54.356;10.100;2023-05-01T13:00:44;101106.72;;;22.87;29.24
58843;BME280;44614;54.356;10.100;2023-05-01T13:03:10;101105.91;;;23.30;30.49
58843;BME280;44614;54.356;10.100;2023-05-01T13:05:36;101106.88;;;23.58;29.96
58843;BME280;44614;54.356;10.100;2023-05-01T13:08:13;101081.53;;;23.68;30.16
58843;BME280;44614;54.356;10.100;2023-05-01T13:10:38;101086.28;;;23.49;30.12
58843;BME280;44614;54.356;10.100;2023-05-01T13:13:04;101073.94;;;23.50;30.78
58843;BME280;44614;54.356;10.100;2023-05-01T13:15:29;101088.72;;;23.55;30.52
58843;BME280;44614;54.356;10.100;2023-05-01T13:18:02;101106.97;;;23.34;30.92
58843;BME280;44614;54.356;10.100;2023-05-01T13:20:29;101090.53;;;23.27;30.90
58843;BME280;44614;54.356;10.100;2023-05-01T13:22:54;101082.75;;;23.24;30.87
58843;BME280;44614;54.356;10.100;2023-05-01T13:25:20;101059.69;;;23.27;31.12
58843;BME280;44614;54.356;10.100;2023-05-01T13:27:50;101080.59;;;23.54;30.78
58843;BME280;44614;54.356;10.100;2023-05-01T13:30:20;101089.41;;;23.47;29.22